This is the latest recevied weather packets stored in our database for station/object IU5GBO-13. If no packets are shown the sender has not sent any weather packets the latest 10 day(s).
| Time | Temp. | Humidity | Pressure | Rain* | Wind** | Luminosity | Snow |
|---|---|---|---|---|---|---|---|
| 1777981579 | 20.56° C | 68% | 1015.3 hPa | - | - | - | - |
| 1777980978 | 21.11° C | 68% | 1015.4 hPa | - | - | - | - |
| 1777980379 | 21.11° C | 67% | 1015.5 hPa | - | - | - | - |
| 1777979779 | 21.11° C | 66% | 1015.3 hPa | - | - | - | - |
| 1777979179 | 21.67° C | 65% | 1015.3 hPa | - | - | - | - |
| 1777978579 | 21.67° C | 65% | 1015.3 hPa | - | - | - | - |
| 1777977979 | 21.67° C | 66% | 1015.4 hPa | - | - | - | - |
| 1777977379 | 21.67° C | 65% | 1015.4 hPa | - | - | - | - |
| 1777976779 | 21.67° C | 65% | 1015.4 hPa | - | - | - | - |
| 1777976179 | 22.22° C | 64% | 1015.4 hPa | - | - | - | - |
| 1777975578 | 22.78° C | 64% | 1015.4 hPa | - | - | - | - |
| 1777974978 | 21.67° C | 66% | 1015.3 hPa | - | - | - | - |
| 1777974379 | 21.11° C | 69% | 1015.4 hPa | - | - | - | - |
| 1777973778 | 20.56° C | 71% | 1015.4 hPa | - | - | - | - |
| 1777973179 | 20° C | 73% | 1015.4 hPa | - | - | - | - |
| 1777972578 | 18.89° C | 77% | 1015.4 hPa | - | - | - | - |
| 1777971979 | 18.33° C | 79% | 1015.5 hPa | - | - | - | - |
| 1777971379 | 18.33° C | 80% | 1015.3 hPa | - | - | - | - |
| 1777970779 | 17.78° C | 82% | 1015.4 hPa | - | - | - | - |
| 1777970179 | 17.22° C | 82% | 1015.4 hPa | - | - | - | - |
| 1777969578 | 17.22° C | 83% | 1015.2 hPa | - | - | - | - |
| 1777968979 | 17.78° C | 84% | 1015.1 hPa | - | - | - | - |
| 1777968454 | 17.78° C | 84% | 1015.1 hPa | - | - | - | - |
| 1777967778 | 17.22° C | 85% | 1015.2 hPa | - | - | - | - |
| 1777967241 | 17.22° C | 85% | 1015.3 hPa | - | - | - | - |
* Rain since midnight (hover to see other rain measurements)
** Current wind speed in m/s (hover to see current wind gust speed)